Latest Weather Observations for Coconut Island

IDQ60801

Issued at 6:06 pm EST Thursday 29 January 2015 (issued every 30 minutes, with the page automatically refreshed every 10 minutes)

About weather observations | Map of weather stations | Latest weather observations for QLD | Other Formats
Station Details ID: 027054 Name: COCONUT ISLAND Lat: -10.05 Lon: 143.07 Height: 3.5 m
Data from the previous 72 hours. | See also: Recent months at Coconut Island
Date/Time
EST
Temp
°C
App
Temp
°C
Dew
Point
Rel
Hum
%
Delta-T
°C
Wind Press
QNH
hPa
Press
MSL
hPa
Rain
since 9 am
mm
Dir
 
Spd
km/h
Gust
km/h
Spd
kts
Gust
kts
29/06:00pm 28.0 - - - - NW 24 39 13 21 1005.4 1005.3 10.4
29/05:30pm 28.3 - - - - NW 26 37 14 20 1004.9 1004.8 10.4
29/05:00pm 28.3 - - - - NW 24 37 13 20 1004.4 1004.3 10.4
29/04:30pm 28.5 - - - - NNW 20 28 11 15 1003.8 1003.7 10.4
29/04:00pm 28.8 - - - - NW 22 32 12 17 1003.8 1003.7 10.4
29/03:30pm 28.9 - - - - NW 24 35 13 19 1003.9 1003.8 10.4
29/03:00pm 29.5 - - - - WNW 22 35 12 19 1004.2 1004.1 10.4
29/02:30pm 29.4 - - - - NW 20 32 11 17 1004.3 1004.2 10.4
29/02:00pm 27.2 - - - - NW 24 39 13 21 1005.1 1005.0 10.4
29/01:30pm 29.4 - - - - WNW 20 30 11 16 1005.6 1005.5 10.2
29/01:00pm 28.1 - - - - NW 19 28 10 15 1006.0 1005.9 10.2
29/12:30pm 26.1 - - - - NW 30 46 16 25 1006.7 1006.6 10.0
29/12:00pm 28.7 - - - - WNW 20 32 11 17 1007.1 1007.0 6.8
29/11:30am 28.0 - - - - NW 20 33 11 18 1007.4 1007.3 6.8
29/11:00am 26.1 - - - - WNW 17 28 9 15 1007.6 1007.5 6.0
29/10:30am 29.1 - - - - NW 19 32 10 17 1007.3 1007.2 0.0
29/10:00am 28.2 - - - - NW 19 28 10 15 1007.4 1007.3 0.0
29/09:30am 28.3 - - - - NW 22 32 12 17 1007.4 1007.3 0.0
29/09:00am 28.0 - - - - NW 20 30 11 16 1007.5 1007.4 0.4
29/08:30am 27.8 - - - - WNW 19 30 10 16 1007.3 1007.2 0.4
29/08:00am 27.8 - - - - NW 22 32 12 17 1007.0 1006.9 0.4
29/07:30am 27.6 - - - - NW 22 33 12 18 1006.6 1006.5 0.4
29/07:00am 27.2 - - - - WNW 15 30 8 16 1006.3 1006.2 0.4
29/06:30am 27.7 - - - - NW 22 33 12 18 1006.3 1006.2 0.4
29/06:00am 27.4 - - - - NNW 26 35 14 19 1005.9 1005.8 0.4
29/05:30am 27.4 - - - - NNW 28 39 15 21 1005.3 1005.2 0.4
29/05:00am 27.4 - - - - NNW 28 35 15 19 1005.1 1005.0 0.4
29/04:30am 27.3 - - - - NNW 26 32 14 17 1005.3 1005.2 0.4
29/04:00am 27.6 - - - - NNW 24 32 13 17 1005.1 1005.0 0.4
29/03:30am 27.6 - - - - NNW 19 24 10 13 1004.6 1004.5 0.4
29/03:00am 27.5 - - - - NNW 20 26 11 14 1004.6 1004.5 0.4
29/02:30am 27.3 - - - - NNW 22 28 12 15 1004.6 1004.5 0.4
29/02:00am 27.6 - - - - NNW 24 32 13 17 1005.0 1004.9 0.4
29/01:30am 27.8 - - - - NNW 20 26 11 14 1005.4 1005.3 0.4
29/01:00am 27.8 - - - - NNW 24 32 13 17 1005.9 1005.8 0.4
29/12:30am 28.0 - - - - NNW 20 30 11 16 1006.2 1006.1 0.4
 
Date/Time
EST
Temp
°C
App
Temp
°C
Dew
Point
Rel
Hum
%
Delta-T
°C
Wind Press
QNH
hPa
Press
MSL
hPa
Rain
since 9 am
mm
Dir
 
Spd
km/h
Gust
km/h
Spd
kts
Gust
kts
28/11:30pm 28.6 - - - - NW 20 30 11 16 1006.9 1006.8 0.4
28/11:00pm 28.7 - - - - NW 20 30 11 16 1006.9 1006.8 0.4
28/10:30pm 28.7 - - - - NW 20 30 11 16 1006.6 1006.5 0.4
28/10:00pm 28.7 - - - - NW 20 32 11 17 1006.5 1006.4 0.4
28/09:30pm 28.8 - - - - NW 20 32 11 17 1006.2 1006.1 0.4
28/09:00pm 28.6 - - - - NW 20 30 11 16 1006.2 1006.1 0.4
28/08:30pm 28.6 - - - - NW 19 28 10 15 1005.9 1005.8 0.4
28/08:00pm 28.5 - - - - NW 19 26 10 14 1005.3 1005.2 0.4
28/07:30pm 28.3 - - - - NW 19 30 10 16 1004.6 1004.5 0.4
28/07:00pm 28.4 - - - - NW 20 30 11 16 1004.2 1004.1 0.4
28/06:30pm 28.2 - - - - NW 20 32 11 17 1003.8 1003.7 0.4
28/06:00pm 27.4 - - - - NW 19 28 10 15 1003.6 1003.5 0.2
28/05:30pm 27.1 - - - - NNW 28 37 15 20 1003.6 1003.5 0.2
28/05:00pm 28.8 - - - - WNW 19 28 10 15 1003.2 1003.1 0.2
28/04:30pm 30.2 - - - - WNW 19 32 10 17 1002.7 1002.6 0.2
28/04:00pm 30.6 - - - - WNW 20 37 11 20 1002.8 1002.7 0.2
28/03:30pm 30.2 - - - - NW 22 35 12 19 1003.1 1003.0 0.2
28/03:00pm 30.2 - - - - NW 22 33 12 18 1003.2 1003.1 0.2
28/02:30pm 30.1 - - - - NW 24 35 13 19 1003.4 1003.3 0.2
28/02:00pm 30.2 - - - - NW 24 35 13 19 1003.8 1003.7 0.2
28/01:30pm 30.0 - - - - NW 24 35 13 19 1004.2 1004.1 0.2
28/01:00pm 29.6 - - - - NW 24 35 13 19 1004.7 1004.6 0.2
28/12:30pm 29.7 - - - - NW 26 37 14 20 1005.2 1005.1 0.2
28/12:00pm 29.3 - - - - NW 28 43 15 23 1005.5 1005.4 0.2
28/11:30am 29.1 - - - - NW 26 37 14 20 1005.9 1005.8 0.2
28/11:00am 28.7 - - - - NW 22 32 12 17 1006.1 1006.0 0.2
28/10:30am 28.1 - - - - NW 22 33 12 18 1006.6 1006.5 0.2
28/10:00am 28.1 - - - - NW 22 35 12 19 1006.8 1006.7 0.2
28/09:30am 27.8 - - - - NW 24 35 13 19 1006.8 1006.7 0.2
28/09:00am 27.2 - - - - WNW 17 26 9 14 1007.0 1006.9 25.6
28/08:30am 26.7 - - - - WNW 17 28 9 15 1007.2 1007.1 25.6
28/08:00am 26.7 - - - - WNW 20 35 11 19 1006.9 1006.8 25.6
28/07:30am 27.4 - - - - NW 26 35 14 19 1006.6 1006.5 25.4
28/07:00am 27.1 - - - - NW 28 37 15 20 1006.5 1006.4 25.0
28/06:30am 27.1 - - - - NNW 26 37 14 20 1006.2 1006.1 24.2
28/06:00am 27.3 - - - - NW 24 32 13 17 1005.8 1005.7 23.6
28/05:30am 27.6 - - - - NW 24 33 13 18 1005.5 1005.4 22.6
28/05:00am 27.7 - - - - NW 22 33 12 18 1005.0 1004.9 22.6
28/04:30am 27.6 - - - - NW 22 32 12 17 1004.9 1004.8 22.6
28/04:00am 27.1 - - - - NW 24 32 13 17 1004.7 1004.6 22.6
28/03:30am 26.4 - - - - NNW 26 32 14 17 1004.2 1004.1 22.6
28/03:00am 26.0 - - - - NNW 26 32 14 17 1004.1 1004.0 22.4
28/02:30am 25.9 - - - - NNW 35 44 19 24 1004.6 1004.5 20.8
28/02:00am 25.2 - - - - NNW 26 35 14 19 1005.3 1005.2 20.6
28/01:30am 26.2 - - - - NNW 26 43 14 23 1005.4 1005.3 15.6
28/01:00am 27.1 - - - - N 30 39 16 21 1005.8 1005.7 1.2
28/12:30am 28.1 - - - - NNW 26 32 14 17 1006.6 1006.5 0.8
28/12:00am 28.5 - - - - NNW 20 30 11 16 1006.9 1006.8 0.8
 
Date/Time
EST
Temp
°C
App
Temp
°C
Dew
Point
Rel
Hum
%
Delta-T
°C
Wind Press
QNH
hPa
Press
MSL
hPa
Rain
since 9 am
mm
Dir
 
Spd
km/h
Gust
km/h
Spd
kts
Gust
kts
27/11:30pm 28.5 - - - - NW 17 24 9 13 1006.8 1006.7 0.8
27/11:00pm 28.4 - - - - WNW 17 26 9 14 1006.8 1006.7 0.8
27/10:30pm 28.1 - - - - WNW 11 19 6 10 1006.5 1006.4 0.8
27/10:00pm 28.0 - - - - WNW 17 26 9 14 1006.1 1006.0 0.8
27/09:30pm 27.9 - - - - WNW 15 24 8 13 1006.2 1006.1 0.8
27/09:00pm 27.3 - - - - WNW 20 33 11 18 1005.8 1005.7 0.8
27/08:30pm 27.9 - - - - W 22 37 12 20 1005.8 1005.7 0.8
27/08:00pm 29.0 - - - - WNW 19 30 10 16 1005.7 1005.6 0.8
27/07:30pm 29.2 - - - - WNW 22 37 12 20 1005.8 1005.7 0.8
27/07:00pm 29.1 - - - - WNW 19 32 10 17 1005.4 1005.3 0.8
27/06:30pm 29.2 - - - - WNW 19 32 10 17 1005.2 1005.1 0.8
27/06:00pm 29.7 - - - - WNW 19 30 10 16 1004.7 1004.6 0.8
27/05:30pm 30.1 - - - - WNW 22 35 12 19 1004.4 1004.3 0.8
27/05:00pm 29.8 - - - - WNW 17 28 9 15 1003.7 1003.6 0.8
27/04:30pm 30.1 - - - - WNW 19 30 10 16 1003.2 1003.1 0.8
27/04:00pm 30.5 - - - - W 19 32 10 17 1003.3 1003.2 0.8
27/03:30pm 29.5 - - - - WNW 22 35 12 19 1003.6 1003.5 0.8
27/03:00pm 30.9 - - - - WNW 20 33 11 18 1004.0 1003.9 0.2
27/02:30pm 30.9 - - - - WNW 17 30 9 16 1004.3 1004.2 0.2
27/02:00pm 30.5 - - - - NW 22 41 12 22 1004.5 1004.4 0.2
27/01:30pm 29.5 - - - - WNW 17 28 9 15 1005.0 1004.9 0.2
27/01:00pm 31.5 - - - - WNW 22 35 12 19 1005.6 1005.5 0.2
27/12:30pm 31.1 - - - - WNW 22 35 12 19 1006.5 1006.4 0.2
27/12:00pm 31.5 - - - - WNW 20 32 11 17 1006.9 1006.8 0.2
27/11:30am 31.0 - - - - NW 20 30 11 16 1007.2 1007.1 0.2
27/11:00am 30.9 - - - - WNW 20 32 11 17 1007.1 1007.0 0.2
27/10:30am 30.6 - - - - NW 22 35 12 19 1007.4 1007.3 0.0
27/10:00am 30.1 - - - - NW 22 33 12 18 1007.8 1007.7 0.0
27/09:30am 29.9 - - - - NW 22 35 12 19 1007.8 1007.7 0.0
27/09:00am 29.8 - - - - NW 22 32 12 17 1007.6 1007.5 0.0
27/08:30am 29.1 - - - - NW 20 30 11 16 1007.6 1007.5 0.0
27/08:00am 28.8 - - - - NW 22 33 12 18 1007.2 1007.1 0.0
27/07:30am 28.6 - - - - NW 22 30 12 16 1007.0 1006.9 0.0
27/07:00am 28.4 - - - - NW 20 28 11 15 1006.8 1006.7 0.0
27/06:30am 28.2 - - - - NW 20 30 11 16 1006.5 1006.4 0.0
27/06:00am 27.9 - - - - NW 15 22 8 12 1006.6 1006.5 0.0
27/05:30am 28.1 - - - - NW 17 24 9 13 1006.8 1006.7 0.0
27/05:00am 28.5 - - - - NW 19 32 10 17 1006.7 1006.6 0.0
27/04:30am 28.5 - - - - NW 20 30 11 16 1006.6 1006.5 0.0
27/04:00am 28.6 - - - - NW 20 32 11 17 1006.5 1006.4 0.0
27/03:30am 28.6 - - - - NW 24 35 13 19 1006.6 1006.5 0.0
27/03:00am 28.4 - - - - NW 20 30 11 16 1006.6 1006.5 0.0
27/02:30am 28.5 - - - - NW 17 24 9 13 1006.7 1006.6 0.0
27/02:00am 28.2 - - - - NNW 19 24 10 13 1007.0 1006.9 0.0
27/01:30am 28.3 - - - - NNW 20 26 11 14 1007.4 1007.3 0.0
27/01:00am 28.4 - - - - NNW 19 26 10 14 1007.9 1007.8 0.0
27/12:30am 28.5 - - - - NNW 19 30 10 16 1008.2 1008.1 0.0
27/12:00am 28.5 - - - - NNW 19 24 10 13 1008.4 1008.3 0.0
 
Date/Time
EST
Temp
°C
App
Temp
°C
Dew
Point
Rel
Hum
%
Delta-T
°C
Wind Press
QNH
hPa
Press
MSL
hPa
Rain
since 9 am
mm
Dir
 
Spd
km/h
Gust
km/h
Spd
kts
Gust
kts
26/11:30pm 28.7 - - - - NNW 19 24 10 13 1008.9 1008.8 0.0
26/11:00pm 28.8 - - - - NW 19 28 10 15 1008.8 1008.7 0.0
26/10:30pm 28.9 - - - - NW 17 24 9 13 1008.7 1008.6 0.0
26/10:00pm 28.9 - - - - NW 17 22 9 12 1008.6 1008.5 0.0
26/09:30pm 28.9 - - - - WNW 17 24 9 13 1008.0 1007.9 0.0
26/09:00pm 28.8 - - - - WNW 19 28 10 15 1007.6 1007.5 0.0
26/08:30pm 28.4 - - - - WNW 15 26 8 14 1007.5 1007.4 0.0
26/08:00pm 29.5 - - - - WNW 19 32 10 17 1007.3 1007.2 0.0
26/07:30pm 29.4 - - - - W 17 28 9 15 1007.2 1007.1 0.0
26/07:00pm 29.6 - - - - W 19 30 10 16 1006.9 1006.8 0.0
26/06:30pm 30.0 - - - - W 17 30 9 16 1006.6 1006.5 0.0

Other Formats:

Comma delimited format used in spreadsheet applications
http://www.bom.gov.au/fwo/IDQ60801/IDQ60801.94182.axf

JavaScript Object Notation format (JSON) in row-major order
http://www.bom.gov.au/fwo/IDQ60801/IDQ60801.94182.json